Time;durP1;ratioP1;P1;durP2;ratioP2;P2;SDS_P1;SDS_P2;PMS_P1;PMS_P2;Temp;Humidity;BMP_temperature;BMP_pressure;BME280_temperature;BME280_humidity;BME280_pressure;Samples;Min_cycle;Max_cycle;Signal;HPM_P1;HPM_P2
2021/03/16 00:02:19;;;;;;;3.97;1.77;;;8.20;85.70;;;;;;4976139;28;20098;-75
2021/03/16 00:04:45;;;;;;;9.50;1.15;;;8.20;85.60;;;;;;4974341;28;20451;-76
2021/03/16 00:07:11;;;;;;;7.50;1.15;;;8.20;85.70;;;;;;4974993;28;20018;-75
2021/03/16 00:09:36;;;;;;;7.50;1.33;;;8.20;85.60;;;;;;4975335;28;20081;-75
2021/03/16 00:12:03;;;;;;;5.30;1.20;;;8.20;85.60;;;;;;4974888;28;20027;-73
2021/03/16 00:14:28;;;;;;;5.38;0.90;;;8.10;85.40;;;;;;4974184;28;20480;-76
2021/03/16 00:16:54;;;;;;;1.50;1.02;;;8.20;85.50;;;;;;4957379;28;20034;-73
2021/03/16 00:19:21;;;;;;;3.40;0.85;;;8.20;85.60;;;;;;4975130;28;20027;-74
2021/03/16 00:21:47;;;;;;;3.35;1.20;;;8.20;85.60;;;;;;4975348;28;20169;-76
2021/03/16 00:24:12;;;;;;;3.33;1.20;;;8.20;85.10;;;;;;4972785;28;20105;-75
2021/03/16 00:26:38;;;;;;;3.30;1.30;;;8.20;85.30;;;;;;4975409;28;20054;-76
2021/03/16 00:29:04;;;;;;;9.60;1.52;;;8.10;85.40;;;;;;4974608;28;20027;-75
2021/03/16 00:31:30;;;;;;;3.67;1.05;;;8.10;85.50;;;;;;4974935;28;20046;-76
2021/03/16 00:33:56;;;;;;;1.50;0.90;;;8.10;85.60;;;;;;4974701;28;20459;-74
2021/03/16 00:36:21;;;;;;;7.82;2.05;;;8.10;85.60;;;;;;4976361;28;20062;-76
2021/03/16 00:38:48;;;;;;;1.45;0.88;;;8.10;85.60;;;;;;4994353;28;20037;-76
2021/03/16 00:41:14;;;;;;;3.38;1.02;;;8.10;85.50;;;;;;4993567;28;20022;-74
2021/03/16 00:43:39;;;;;;;3.47;1.75;;;8.10;85.30;;;;;;4994079;28;20118;-75
2021/03/16 00:46:05;;;;;;;2.88;1.27;;;8.10;85.30;;;;;;4993778;28;20081;-75
2021/03/16 00:48:31;;;;;;;4.15;0.85;;;8.10;85.30;;;;;;4976631;28;20046;-75
2021/03/16 00:50:56;;;;;;;4.75;1.27;;;8.10;85.20;;;;;;4993447;28;20037;-75
2021/03/16 00:53:22;;;;;;;3.38;0.82;;;8.10;85.40;;;;;;4976509;28;20073;-75
2021/03/16 00:55:48;;;;;;;3.35;1.00;;;8.00;85.40;;;;;;4993966;28;20077;-75
2021/03/16 00:58:13;;;;;;;1.52;1.42;;;8.00;85.40;;;;;;4993582;28;20105;-75
2021/03/16 01:00:39;;;;;;;1.15;0.98;;;8.00;85.40;;;;;;4993886;28;20100;-75
2021/03/16 01:03:05;;;;;;;2.95;1.90;;;8.00;85.50;;;;;;4993477;28;20018;-74
2021/03/16 01:05:33;;;;;;;3.13;1.02;;;7.90;85.50;;;;;;4993944;28;20117;-76
2021/03/16 01:07:58;;;;;;;1.05;0.85;;;7.90;85.40;;;;;;4976163;28;20508;-74
2021/03/16 01:10:25;;;;;;;7.03;1.52;;;7.90;85.50;;;;;;4993953;28;20022;-74
2021/03/16 01:12:51;;;;;;;7.65;1.10;;;7.90;85.50;;;;;;4976038;28;20076;-76
2021/03/16 01:15:16;;;;;;;6.03;1.52;;;7.90;85.40;;;;;;4993157;28;20051;-75
2021/03/16 01:17:42;;;;;;;3.95;1.27;;;7.90;85.30;;;;;;4976402;28;20067;-76
2021/03/16 01:20:12;;;;;;;14.95;1.30;;;8.00;85.30;;;;;;4992999;28;20022;-75
2021/03/16 01:22:37;;;;;;;2.10;0.88;;;8.00;85.20;;;;;;4993364;28;20041;-75
2021/03/16 01:25:04;;;;;;;4.50;1.08;;;8.00;85.10;;;;;;4975277;28;20022;-74
2021/03/16 01:27:30;;;;;;;1.92;0.85;;;8.00;85.00;;;;;;4993608;28;20025;-75
2021/03/16 01:29:56;;;;;;;4.20;0.90;;;8.00;85.00;;;;;;4992897;28;20105;-74
2021/03/16 01:32:21;;;;;;;3.70;0.93;;;8.00;84.70;;;;;;4993547;28;20059;-74
2021/03/16 01:34:47;;;;;;;2.03;0.90;;;8.10;84.70;;;;;;4992440;28;20041;-75
2021/03/16 01:37:13;;;;;;;2.13;1.30;;;8.10;85.30;;;;;;4992822;28;20022;-75
2021/03/16 01:39:38;;;;;;;0.55;0.52;;;8.10;84.40;;;;;;4993688;28;20038;-76
2021/03/16 01:42:04;;;;;;;1.25;0.82;;;8.10;84.50;;;;;;4992479;28;20100;-75
2021/03/16 01:44:30;;;;;;;6.88;1.58;;;8.10;84.40;;;;;;4992956;28;20434;-75
2021/03/16 01:46:56;;;;;;;2.03;0.90;;;8.10;84.30;;;;;;4992795;28;20128;-75
2021/03/16 01:49:21;;;;;;;1.63;1.02;;;8.10;84.20;;;;;;4975111;28;20033;-76
2021/03/16 01:51:47;;;;;;;2.03;1.05;;;8.10;84.10;;;;;;4992773;28;20042;-75
2021/03/16 01:54:13;;;;;;;1.52;0.77;;;8.10;83.90;;;;;;4992403;28;20025;-75
2021/03/16 01:56:41;;;;;;;2.58;0.90;;;8.10;83.90;;;;;;4975616;28;20117;-76
2021/03/16 01:59:07;;;;;;;2.30;0.93;;;8.10;83.90;;;;;;4992424;28;20022;-75
2021/03/16 02:01:35;;;;;;;4.15;0.88;;;8.10;83.90;;;;;;4993243;28;20084;-75
2021/03/16 02:04:00;;;;;;;8.27;1.05;;;8.10;84.00;;;;;;4992280;28;20023;-75
2021/03/16 02:06:39;;;;;;;6.38;1.05;;;8.10;84.10;;;;;;4992920;28;20036;-75
2021/03/16 02:09:18;;;;;;;5.07;0.70;;;8.10;84.10;;;;;;4992252;28;20022;-75
2021/03/16 02:12:09;;;;;;;8.13;1.40;;;8.10;84.30;;;;;;4992655;28;20525;-75
2021/03/16 02:14:46;;;;;;;2.28;1.00;;;8.00;84.40;;;;;;4992831;28;20030;-75
2021/03/16 02:17:20;;;;;;;1.60;0.88;;;8.00;84.40;;;;;;4992014;28;20045;-74
2021/03/16 02:20:13;;;;;;;5.00;1.13;;;8.00;84.40;;;;;;4992460;28;20032;-75
2021/03/16 02:22:42;;;;;;;1.67;0.95;;;8.00;84.30;;;;;;4992504;28;20026;-75
2021/03/16 02:25:11;;;;;;;2.47;0.98;;;8.00;83.80;;;;;;4992054;28;20022;-75
2021/03/16 02:27:45;;;;;;;0.60;0.60;;;8.00;83.90;;;;;;4975076;28;20470;-75
2021/03/16 02:30:12;;;;;;;1.98;1.00;;;8.00;83.80;;;;;;4991612;28;20402;-74
2021/03/16 02:32:42;;;;;;;1.95;0.80;;;8.00;83.80;;;;;;4975138;28;20130;-76
2021/03/16 02:35:11;;;;;;;5.40;1.05;;;8.00;83.80;;;;;;4992161;28;20042;-75
2021/03/16 02:37:39;;;;;;;5.50;0.93;;;8.00;83.50;;;;;;4973963;28;20105;-75
2021/03/16 02:40:06;;;;;;;8.52;1.58;;;8.00;83.70;;;;;;4991877;28;20038;-75
2021/03/16 02:42:34;;;;;;;4.97;0.82;;;8.00;83.60;;;;;;4992467;28;20494;-76
2021/03/16 02:45:02;;;;;;;3.15;0.90;;;8.00;83.70;;;;;;4992447;28;20026;-75
2021/03/16 02:47:28;;;;;;;5.07;0.75;;;8.10;83.70;;;;;;4991818;28;20142;-76
2021/03/16 02:49:54;;;;;;;1.60;0.57;;;8.10;83.60;;;;;;4974833;28;20037;-76
2021/03/16 02:52:22;;;;;;;2.95;1.02;;;8.10;83.40;;;;;;4974257;28;20529;-75
2021/03/16 02:54:49;;;;;;;3.50;0.70;;;8.10;83.40;;;;;;4992295;28;20038;-75
2021/03/16 02:57:16;;;;;;;2.63;0.68;;;8.10;83.40;;;;;;4991687;28;20062;-75
2021/03/16 02:59:44;;;;;;;6.45;1.15;;;8.10;83.20;;;;;;4991988;28;20049;-76
2021/03/16 03:02:14;;;;;;;2.20;1.00;;;8.10;83.30;;;;;;4974113;28;20109;-75
2021/03/16 03:04:46;;;;;;;0.90;0.60;;;8.10;83.20;;;;;;4974734;28;20026;-75
2021/03/16 03:07:12;;;;;;;0.60;0.60;;;8.20;83.30;;;;;;4991417;28;20101;-75
2021/03/16 03:09:38;;;;;;;1.95;1.05;;;8.10;83.10;;;;;;4991972;28;20023;-75
2021/03/16 03:12:08;;;;;;;1.17;0.70;;;8.10;83.10;;;;;;4991614;28;20027;-75
2021/03/16 03:14:36;;;;;;;3.78;0.75;;;8.10;83.10;;;;;;4974796;28;20030;-75
2021/03/16 03:17:04;;;;;;;1.63;0.90;;;8.10;83.30;;;;;;4992165;28;20062;-76
2021/03/16 03:19:30;;;;;;;3.17;0.88;;;8.10;83.30;;;;;;4992273;28;20122;-74
2021/03/16 03:22:29;;;;;;;1.80;0.85;;;8.10;83.30;;;;;;4992357;28;20053;-76
2021/03/16 03:25:08;;;;;;;3.28;1.00;;;8.20;83.30;;;;;;4991944;28;20066;-75
2021/03/16 03:27:38;;;;;;;3.00;0.70;;;8.10;83.20;;;;;;4992032;28;20077;-75
2021/03/16 03:30:06;;;;;;;1.63;1.00;;;8.20;83.30;;;;;;4974642;28;20026;-75
2021/03/16 03:32:33;;;;;;;2.38;0.63;;;8.10;83.30;;;;;;4992231;28;20258;-75
2021/03/16 03:35:01;;;;;;;5.20;0.82;;;8.10;83.40;;;;;;4991531;28;20469;-75
2021/03/16 03:37:30;;;;;;;2.40;1.67;;;8.20;83.40;;;;;;4991329;28;20109;-76
2021/03/16 03:39:58;;;;;;;8.27;1.00;;;8.20;83.20;;;;;;4974438;28;20073;-75
2021/03/16 03:42:24;;;;;;;4.78;0.65;;;8.10;83.30;;;;;;4991108;28;20395;-75
2021/03/16 03:44:52;;;;;;;3.20;0.93;;;8.10;83.30;;;;;;4992260;28;20027;-75
2021/03/16 03:47:19;;;;;;;3.08;0.82;;;8.10;83.30;;;;;;4990698;28;20054;-76
2021/03/16 03:49:46;;;;;;;1.95;0.95;;;8.10;83.40;;;;;;4991831;28;20430;-76
2021/03/16 03:52:19;;;;;;;2.10;0.60;;;8.10;83.40;;;;;;4991265;28;20022;-75
2021/03/16 03:54:45;;;;;;;7.47;1.10;;;8.00;83.40;;;;;;4974126;28;20062;-75
2021/03/16 03:57:14;;;;;;;2.00;0.60;;;8.00;83.50;;;;;;4991257;28;20023;-75
2021/03/16 03:59:41;;;;;;;0.90;0.77;;;8.00;83.20;;;;;;4994814;28;20033;-76
2021/03/16 04:02:07;;;;;;;5.03;1.00;;;8.00;83.20;;;;;;4995001;28;20034;-75
2021/03/16 04:04:36;;;;;;;1.92;0.75;;;8.00;83.20;;;;;;4995311;28;20026;-74
2021/03/16 04:07:02;;;;;;;2.05;0.68;;;8.10;83.10;;;;;;4977981;28;20462;-78
2021/03/16 04:09:28;;;;;;;2.35;0.90;;;8.00;82.80;;;;;;4976771;28;20525;-75
2021/03/16 04:11:55;;;;;;;0.88;0.73;;;8.10;82.90;;;;;;4994764;28;20027;-76
2021/03/16 04:14:21;;;;;;;3.55;0.70;;;8.00;82.50;;;;;;4994521;28;20038;-75
2021/03/16 04:16:47;;;;;;;1.85;1.02;;;8.00;82.70;;;;;;4995068;28;20030;-71
2021/03/16 04:19:14;;;;;;;2.75;0.70;;;8.00;82.70;;;;;;4994190;28;20537;-76
2021/03/16 04:21:40;;;;;;;1.60;0.85;;;7.90;83.40;;;;;;4977405;28;20022;-76
2021/03/16 04:24:06;;;;;;;1.25;0.90;;;7.90;82.90;;;;;;4977338;28;20038;-75
2021/03/16 04:26:31;;;;;;;10.63;1.35;;;8.00;82.80;;;;;;4994004;28;20097;-76
2021/03/16 04:28:57;;;;;;;1.95;1.05;;;7.90;82.70;;;;;;4977048;28;20026;-77
2021/03/16 04:31:23;;;;;;;6.43;0.80;;;7.90;82.60;;;;;;4993869;28;20105;-75
2021/03/16 04:33:48;;;;;;;2.97;0.77;;;7.90;82.70;;;;;;4994881;28;20481;-75
2021/03/16 04:36:14;;;;;;;2.97;0.93;;;7.90;82.90;;;;;;4994004;28;20069;-74
2021/03/16 04:38:39;;;;;;;2.15;1.08;;;7.90;82.80;;;;;;4976005;28;20026;-75
2021/03/16 04:41:06;;;;;;;5.00;0.98;;;7.90;82.90;;;;;;4994446;28;20038;-75
2021/03/16 04:43:32;;;;;;;1.33;0.90;;;7.90;82.80;;;;;;4993677;28;20030;-75
2021/03/16 04:45:58;;;;;;;8.45;0.98;;;7.90;82.90;;;;;;4994188;28;20032;-77
2021/03/16 04:48:23;;;;;;;2.63;0.93;;;7.90;82.90;;;;;;4993750;28;20054;-74
2021/03/16 04:50:49;;;;;;;1.92;1.00;;;7.90;82.90;;;;;;4994133;28;20027;-75
2021/03/16 04:53:14;;;;;;;1.15;0.85;;;7.90;82.90;;;;;;4975766;28;20049;-74
2021/03/16 04:55:40;;;;;;;3.47;1.13;;;7.90;82.90;;;;;;4994032;28;20035;-75
2021/03/16 04:58:06;;;;;;;3.47;1.38;;;7.80;83.10;;;;;;4994028;28;20486;-75
2021/03/16 05:00:31;;;;;;;2.40;1.10;;;7.80;83.20;;;;;;4993181;28;20042;-75
2021/03/16 05:02:57;;;;;;;3.50;1.13;;;7.90;83.20;;;;;;4993895;28;20454;-75
2021/03/16 05:05:23;;;;;;;4.32;0.85;;;7.90;83.20;;;;;;4992952;28;20026;-75
2021/03/16 05:07:48;;;;;;;1.20;0.80;;;7.90;83.20;;;;;;4976655;28;20034;-72
2021/03/16 05:10:14;;;;;;;1.23;0.80;;;7.90;83.30;;;;;;4992978;28;20015;-74
2021/03/16 05:12:40;;;;;;;2.75;1.25;;;7.90;83.40;;;;;;4976029;28;20096;-74
2021/03/16 05:15:07;;;;;;;0.95;0.95;;;7.80;83.20;;;;;;4993480;28;20096;-74
2021/03/16 05:17:33;;;;;;;4.03;1.38;;;7.90;83.40;;;;;;4993039;28;20316;-72
2021/03/16 05:19:58;;;;;;;3.97;1.15;;;7.80;83.50;;;;;;4993993;28;20018;-76
2021/03/16 05:22:24;;;;;;;3.70;1.27;;;7.90;83.50;;;;;;4993052;28;20495;-76
2021/03/16 05:24:50;;;;;;;4.70;0.98;;;7.90;83.50;;;;;;4993401;28;20470;-74
2021/03/16 05:27:15;;;;;;;4.28;0.82;;;7.90;83.50;;;;;;4992931;28;20469;-75
2021/03/16 05:29:41;;;;;;;4.00;0.77;;;7.90;83.40;;;;;;4993316;28;20026;-75
2021/03/16 05:32:07;;;;;;;8.45;1.15;;;7.90;83.50;;;;;;4993267;28;20480;-74
2021/03/16 05:34:32;;;;;;;5.22;1.15;;;7.90;83.40;;;;;;4975386;28;20176;-73
2021/03/16 05:36:58;;;;;;;3.72;0.77;;;7.90;83.50;;;;;;4993973;28;20390;-77
2021/03/16 05:39:24;;;;;;;6.85;1.48;;;7.90;83.50;;;;;;4974166;28;20022;-74
2021/03/16 05:41:50;;;;;;;3.80;0.95;;;7.90;83.50;;;;;;4971915;28;20022;-74
2021/03/16 05:44:17;;;;;;;8.07;1.85;;;7.90;83.60;;;;;;4986819;28;20061;-74
2021/03/16 05:46:43;;;;;;;4.95;1.02;;;7.90;83.80;;;;;;4993075;28;20033;-74
2021/03/16 05:49:09;;;;;;;5.50;1.27;;;7.90;83.70;;;;;;4992667;28;20042;-74
2021/03/16 05:51:37;;;;;;;1.48;1.02;;;7.90;83.70;;;;;;4991515;28;20685;-73
2021/03/16 05:54:04;;;;;;;5.28;1.05;;;7.80;83.50;;;;;;4974963;28;20397;-73
2021/03/16 05:56:34;;;;;;;2.28;1.13;;;7.80;83.60;;;;;;4992353;28;20041;-73
2021/03/16 05:59:02;;;;;;;2.30;1.23;;;7.80;83.80;;;;;;4992638;28;20015;-73
2021/03/16 06:01:27;;;;;;;4.68;1.08;;;7.80;84.00;;;;;;4992319;28;20063;-74
2021/03/16 06:03:53;;;;;;;5.25;1.40;;;7.80;84.10;;;;;;4992945;28;20094;-74
2021/03/16 06:06:19;;;;;;;2.22;1.20;;;7.80;84.00;;;;;;4992354;28;20061;-73
2021/03/16 06:08:44;;;;;;;4.00;1.15;;;7.80;84.00;;;;;;4993228;28;20041;-74
2021/03/16 06:11:11;;;;;;;3.00;1.20;;;7.90;84.00;;;;;;4990452;28;20038;-75
2021/03/16 06:13:56;;;;;;;2.55;1.05;;;7.90;83.80;;;;;;4989722;28;20523;-75
2021/03/16 06:16:33;;;;;;;3.83;1.08;;;8.00;83.80;;;;;;4990004;28;20356;-76
2021/03/16 06:18:59;;;;;;;3.38;1.25;;;8.00;84.00;;;;;;4990709;28;20037;-74
2021/03/16 06:21:25;;;;;;;7.30;1.20;;;7.90;83.80;;;;;;4971800;28;20030;-73
2021/03/16 06:23:56;;;;;;;1.52;0.95;;;8.00;83.80;;;;;;4991197;28;20089;-74
2021/03/16 06:26:24;;;;;;;1.52;1.00;;;8.10;83.90;;;;;;4989915;28;20026;-75
2021/03/16 06:28:50;;;;;;;2.72;1.20;;;8.00;83.80;;;;;;4990471;28;20061;-74
2021/03/16 06:31:23;;;;;;;6.97;1.23;;;8.10;83.90;;;;;;4972355;28;20055;-74
2021/03/16 06:33:49;;;;;;;2.28;0.70;;;8.10;84.00;;;;;;4992378;28;20470;-75
2021/03/16 06:36:15;;;;;;;3.63;0.98;;;8.00;84.10;;;;;;4974879;28;20521;-75
2021/03/16 06:38:41;;;;;;;4.03;1.13;;;8.10;84.30;;;;;;4991883;28;20031;-75
2021/03/16 06:41:15;;;;;;;5.10;0.80;;;8.10;84.30;;;;;;4992032;28;20527;-74
2021/03/16 06:43:43;;;;;;;4.22;1.02;;;8.10;84.20;;;;;;4972469;28;20025;-75
2021/03/16 06:46:09;;;;;;;3.17;1.08;;;8.20;84.00;;;;;;4974519;28;20069;-75
2021/03/16 06:48:37;;;;;;;4.28;1.17;;;8.10;84.10;;;;;;4990239;28;20098;-73
2021/03/16 06:51:30;;;;;;;4.75;0.95;;;8.10;84.20;;;;;;4974142;28;20034;-75
2021/03/16 06:54:13;;;;;;;2.90;0.88;;;8.10;84.30;;;;;;4990730;28;20034;-75
2021/03/16 06:56:39;;;;;;;3.28;1.33;;;8.10;84.50;;;;;;4974241;28;20034;-74
2021/03/16 06:59:06;;;;;;;0.88;0.68;;;8.10;84.60;;;;;;4974699;28;20022;-74
2021/03/16 07:01:33;;;;;;;3.90;1.02;;;8.10;84.70;;;;;;4973952;28;20481;-75
2021/03/16 07:04:11;;;;;;;1.67;1.45;;;8.10;84.90;;;;;;4974717;28;20026;-75
2021/03/16 07:06:36;;;;;;;4.38;0.70;;;8.10;85.00;;;;;;4991386;28;20378;-74
2021/03/16 07:09:02;;;;;;;9.07;1.15;;;8.10;85.20;;;;;;4991897;28;20023;-75
2021/03/16 07:11:32;;;;;;;5.80;0.98;;;8.00;85.20;;;;;;4991117;28;20033;-74
2021/03/16 07:13:59;;;;;;;3.80;0.90;;;8.10;85.30;;;;;;4991788;28;20378;-76
2021/03/16 07:16:25;;;;;;;4.18;1.05;;;8.00;85.50;;;;;;4974019;28;20375;-74
2021/03/16 07:18:51;;;;;;;4.80;1.10;;;8.00;85.60;;;;;;4991739;28;20093;-73
2021/03/16 07:21:43;;;;;;;1.90;0.95;;;8.00;85.60;;;;;;4991937;28;20022;-74
2021/03/16 07:24:11;;;;;;;3.20;0.85;;;8.10;85.60;;;;;;4992059;28;20026;-74
2021/03/16 07:26:40;;;;;;;1.48;0.90;;;8.20;85.40;;;;;;4991415;28;20061;-75
2021/03/16 07:29:09;;;;;;;5.88;0.90;;;8.30;85.40;;;;;;4974873;28;20019;-75
2021/03/16 07:31:41;;;;;;;1.40;0.90;;;8.20;85.40;;;;;;4991505;28;20022;-74
2021/03/16 07:34:08;;;;;;;3.80;1.23;;;8.20;85.50;;;;;;4994086;28;20069;-75
2021/03/16 07:36:36;;;;;;;1.10;0.65;;;8.10;85.60;;;;;;4995135;28;20030;-75
2021/03/16 07:39:05;;;;;;;2.40;0.65;;;8.10;85.60;;;;;;4977884;28;20022;-75
2021/03/16 07:41:32;;;;;;;6.22;0.90;;;8.20;85.50;;;;;;4994647;28;20042;-75
2021/03/16 07:44:03;;;;;;;1.80;0.90;;;8.30;85.40;;;;;;4995399;28;20077;-74
2021/03/16 07:46:46;;;;;;;5.13;1.00;;;8.30;85.30;;;;;;4994430;28;20026;-74
2021/03/16 07:49:14;;;;;;;3.40;1.02;;;8.40;85.10;;;;;;4995612;28;20129;-74
2021/03/16 07:51:43;;;;;;;3.58;1.00;;;8.40;85.00;;;;;;4977153;28;20172;-75
2021/03/16 07:54:10;;;;;;;2.67;0.70;;;8.50;84.90;;;;;;4995488;28;20065;-75
2021/03/16 07:56:37;;;;;;;8.18;1.27;;;8.50;84.80;;;;;;4994839;28;20153;-75
2021/03/16 07:59:04;;;;;;;4.20;1.30;;;8.60;84.70;;;;;;4995307;28;20022;-74
2021/03/16 08:01:30;;;;;;;2.30;1.35;;;8.60;84.20;;;;;;4994595;28;20050;-75
2021/03/16 08:04:09;;;;;;;2.40;1.15;;;8.60;84.30;;;;;;4995202;28;20324;-75
2021/03/16 08:06:36;;;;;;;3.67;1.20;;;8.70;84.40;;;;;;4994479;28;20026;-75
2021/03/16 08:09:06;;;;;;;6.28;1.60;;;8.70;84.10;;;;;;4995095;28;20451;-74
2021/03/16 08:11:39;;;;;;;4.90;1.30;;;8.70;83.90;;;;;;4994255;28;20029;-75
2021/03/16 08:14:05;;;;;;;15.05;1.23;;;8.80;84.00;;;;;;4995062;28;20035;-75
2021/03/16 08:16:39;;;;;;;7.18;1.20;;;8.80;83.80;;;;;;4994383;28;20120;-75
2021/03/16 08:19:22;;;;;;;3.60;1.60;;;8.90;83.70;;;;;;4994999;28;20022;-75
2021/03/16 08:21:59;;;;;;;2.00;0.77;;;8.90;83.50;;;;;;4994308;28;20030;-75
2021/03/16 08:24:39;;;;;;;1.42;0.80;;;8.90;83.50;;;;;;4994817;28;20030;-75
2021/03/16 08:27:13;;;;;;;1.13;0.70;;;9.00;83.40;;;;;;4977286;28;20425;-75
2021/03/16 08:29:43;;;;;;;6.82;1.20;;;9.00;83.20;;;;;;4993926;28;20050;-75
2021/03/16 08:32:16;;;;;;;1.13;0.65;;;9.00;83.20;;;;;;4995025;28;20374;-76
2021/03/16 08:34:44;;;;;;;2.67;1.70;;;8.90;82.90;;;;;;4993759;28;20034;-75
2021/03/16 08:37:31;;;;;;;1.23;1.08;;;8.90;82.70;;;;;;4994776;28;20521;-75
2021/03/16 08:39:57;;;;;;;3.50;1.65;;;9.00;82.40;;;;;;4994523;28;20485;-75
2021/03/16 08:42:24;;;;;;;3.85;0.85;;;9.00;82.40;;;;;;4977046;28;20026;-75
2021/03/16 08:44:51;;;;;;;3.88;1.10;;;9.00;82.40;;;;;;4975937;28;20035;-75
2021/03/16 08:47:24;;;;;;;2.22;1.40;;;9.10;82.10;;;;;;4976599;28;20026;-74
2021/03/16 08:49:53;;;;;;;5.10;0.82;;;9.20;81.70;;;;;;4993623;28;20493;-75
2021/03/16 08:52:20;;;;;;;2.50;0.80;;;9.20;81.60;;;;;;4976780;28;20076;-75
2021/03/16 08:54:47;;;;;;;2.30;1.05;;;9.20;81.70;;;;;;4993353;28;20034;-76
2021/03/16 08:57:21;;;;;;;4.15;1.20;;;9.20;81.60;;;;;;4976329;28;20031;-74
2021/03/16 08:59:49;;;;;;;3.17;1.00;;;9.20;81.50;;;;;;4993475;28;20026;-75
2021/03/16 09:02:23;;;;;;;1.40;0.93;;;9.30;81.30;;;;;;4994128;28;20038;-75
2021/03/16 09:04:49;;;;;;;6.93;1.10;;;9.30;81.20;;;;;;4993396;28;20026;-74
2021/03/16 09:07:29;;;;;;;6.10;1.58;;;9.30;81.00;;;;;;4976358;28;20022;-75
2021/03/16 09:10:10;;;;;;;6.97;1.30;;;9.40;81.00;;;;;;4993169;28;20018;-74
2021/03/16 09:12:37;;;;;;;6.70;1.25;;;9.40;80.60;;;;;;4993519;28;20030;-75
2021/03/16 09:15:36;;;;;;;2.70;1.17;;;9.30;80.20;;;;;;4993818;28;20030;-75
2021/03/16 09:18:05;;;;;;;5.35;1.40;;;9.30;80.20;;;;;;4992090;28;20040;-76
2021/03/16 09:20:35;;;;;;;2.70;0.75;;;9.40;80.40;;;;;;4994012;28;20019;-75
2021/03/16 09:23:04;;;;;;;1.15;0.98;;;9.50;80.30;;;;;;4993551;28;20064;-76
2021/03/16 09:25:32;;;;;;;2.35;1.15;;;9.60;79.70;;;;;;4976100;28;20022;-75
2021/03/16 09:28:02;;;;;;;3.60;0.85;;;9.60;79.50;;;;;;4976167;28;20026;-75
2021/03/16 09:30:30;;;;;;;1.70;0.73;;;9.70;79.00;;;;;;4975891;28;20032;-74
2021/03/16 09:32:56;;;;;;;1.38;1.13;;;9.70;79.00;;;;;;4992859;28;20026;-75
2021/03/16 09:35:22;;;;;;;4.38;1.13;;;9.80;79.10;;;;;;4993423;28;20100;-75
2021/03/16 09:37:51;;;;;;;6.63;2.20;;;9.90;78.50;;;;;;4992792;28;20050;-75
2021/03/16 09:40:27;;;;;;;7.07;1.30;;;9.80;78.10;;;;;;4976031;28;20019;-75
2021/03/16 09:42:52;;;;;;;2.97;1.05;;;9.80;77.90;;;;;;4975117;28;20520;-76
2021/03/16 09:45:19;;;;;;;1.17;0.70;;;9.80;77.90;;;;;;4993125;28;20038;-74
2021/03/16 09:47:46;;;;;;;2.08;0.90;;;9.80;77.90;;;;;;4992508;28;20112;-75
2021/03/16 09:50:13;;;;;;;2.15;0.75;;;9.80;77.90;;;;;;4993879;28;20470;-76
2021/03/16 09:52:39;;;;;;;4.10;1.08;;;9.90;77.10;;;;;;4993138;28;20080;-74
2021/03/16 09:55:06;;;;;;;1.73;1.25;;;9.90;77.20;;;;;;4992866;28;20105;-76
2021/03/16 09:57:35;;;;;;;1.23;0.63;;;9.90;76.80;;;;;;4992478;28;20036;-74
2021/03/16 10:00:01;;;;;;;0.57;0.47;;;9.80;77.10;;;;;;4993050;28;20593;-75
2021/03/16 10:02:35;;;;;;;0.98;0.50;;;9.80;77.20;;;;;;4993235;28;20105;-75
2021/03/16 10:05:10;;;;;;;7.15;0.77;;;9.90;77.00;;;;;;4992866;28;20034;-76
2021/03/16 10:07:36;;;;;;;6.28;1.15;;;9.90;76.70;;;;;;4992539;28;20014;-76
2021/03/16 10:10:24;;;;;;;4.75;1.27;;;9.90;76.60;;;;;;4992944;28;20037;-76
2021/03/16 10:13:02;;;;;;;2.38;0.65;;;10.00;76.50;;;;;;4992081;28;20030;-75
2021/03/16 10:15:30;;;;;;;0.95;0.80;;;10.00;76.00;;;;;;4992788;28;20030;-74
2021/03/16 10:18:00;;;;;;;3.35;0.80;;;10.00;76.00;;;;;;4974862;28;20404;-76
2021/03/16 10:20:36;;;;;;;0.98;0.85;;;10.10;76.00;;;;;;4975639;28;20101;-75
2021/03/16 10:23:08;;;;;;;2.00;0.80;;;10.20;75.30;;;;;;4974952;28;20482;-76
2021/03/16 10:25:36;;;;;;;1.73;0.73;;;10.20;74.90;;;;;;4992274;28;20033;-75
2021/03/16 10:28:09;;;;;;;3.85;1.20;;;10.20;74.80;;;;;;4974738;28;20026;-74
2021/03/16 10:30:37;;;;;;;2.10;0.57;;;10.20;74.80;;;;;;4974529;28;20033;-75
2021/03/16 10:33:07;;;;;;;3.40;0.82;;;10.30;74.10;;;;;;4992405;28;20018;-76
2021/03/16 10:35:38;;;;;;;1.85;0.80;;;10.30;74.30;;;;;;4974567;28;20358;-75
2021/03/16 10:38:05;;;;;;;3.10;0.80;;;10.30;74.20;;;;;;4974896;28;20026;-75
2021/03/16 10:40:31;;;;;;;5.63;0.95;;;10.30;74.30;;;;;;4992276;28;20019;-76
2021/03/16 10:42:57;;;;;;;1.95;0.75;;;10.40;74.40;;;;;;4991774;28;20050;-76
2021/03/16 10:45:23;;;;;;;1.25;0.63;;;10.50;73.70;;;;;;4992313;28;20026;-76
2021/03/16 10:47:49;;;;;;;2.53;0.80;;;10.50;73.30;;;;;;4991580;28;20057;-75
2021/03/16 10:50:15;;;;;;;0.95;0.60;;;10.40;73.50;;;;;;4992365;28;20075;-75
2021/03/16 10:52:41;;;;;;;0.65;0.63;;;10.40;73.30;;;;;;4991624;28;20054;-76
2021/03/16 10:55:08;;;;;;;1.27;0.63;;;10.50;73.10;;;;;;4992234;28;20069;-77
2021/03/16 10:57:34;;;;;;;1.48;0.63;;;10.60;73.00;;;;;;4992399;28;20034;-77
2021/03/16 11:00:08;;;;;;;0.60;0.57;;;10.60;72.60;;;;;;4974100;28;20426;-76
2021/03/16 11:02:34;;;;;;;2.15;0.60;;;10.70;72.20;;;;;;4991994;28;20036;-76
2021/03/16 11:04:59;;;;;;;2.45;0.50;;;10.80;72.30;;;;;;4991171;28;20109;-75
2021/03/16 11:07:25;;;;;;;5.93;0.50;;;10.90;72.00;;;;;;4993321;28;20057;-75
2021/03/16 11:09:51;;;;;;;3.90;0.85;;;11.00;71.90;;;;;;4995512;28;20027;-75
2021/03/16 11:12:19;;;;;;;4.63;0.95;;;11.00;71.30;;;;;;4995701;28;20064;-75
2021/03/16 11:14:45;;;;;;;1.45;0.63;;;11.00;71.10;;;;;;4995008;28;20434;-76
2021/03/16 11:17:12;;;;;;;2.72;0.65;;;11.10;71.30;;;;;;4996184;28;20026;-75
2021/03/16 11:19:37;;;;;;;3.22;0.95;;;11.20;71.20;;;;;;4996707;28;20068;-76
2021/03/16 11:22:03;;;;;;;1.88;0.60;;;11.10;70.20;;;;;;4995738;28;20027;-76
2021/03/16 11:24:29;;;;;;;2.45;0.60;;;11.10;70.30;;;;;;4995711;28;20034;-75
2021/03/16 11:26:54;;;;;;;2.95;1.25;;;11.20;70.20;;;;;;4994883;28;20019;-75
2021/03/16 11:29:20;;;;;;;1.17;0.57;;;11.20;70.00;;;;;;4996029;28;20109;-75
2021/03/16 11:31:46;;;;;;;1.70;0.70;;;11.20;70.20;;;;;;4977648;28;20105;-75
2021/03/16 11:34:12;;;;;;;3.10;0.70;;;11.30;69.90;;;;;;4978069;28;20041;-76
2021/03/16 11:36:38;;;;;;;1.48;0.70;;;11.20;69.60;;;;;;4996026;28;20081;-76
2021/03/16 11:39:04;;;;;;;0.90;0.55;;;11.20;69.70;;;;;;4977311;28;20026;-75
2021/03/16 11:41:29;;;;;;;1.13;0.75;;;11.20;69.60;;;;;;4995796;28;20022;-77
2021/03/16 11:43:55;;;;;;;0.63;0.45;;;11.20;69.50;;;;;;4994793;28;20447;-75
2021/03/16 11:46:21;;;;;;;1.17;0.82;;;11.20;68.90;;;;;;4995567;28;20474;-75
2021/03/16 11:48:46;;;;;;;0.75;0.52;;;11.20;69.10;;;;;;4994807;28;20046;-75
2021/03/16 11:51:12;;;;;;;1.00;0.77;;;11.30;69.30;;;;;;4995547;28;20023;-75
2021/03/16 11:53:38;;;;;;;6.20;1.15;;;11.40;68.90;;;;;;4995772;28;20027;-75
2021/03/16 11:56:04;;;;;;;0.57;0.47;;;11.50;68.50;;;;;;4994734;28;20406;-76
2021/03/16 11:58:32;;;;;;;1.52;0.57;;;11.50;68.60;;;;;;4994827;28;20470;-76
2021/03/16 12:00:58;;;;;;;2.17;0.60;;;11.50;68.40;;;;;;4994369;28;20018;-75
2021/03/16 12:03:24;;;;;;;6.32;0.82;;;11.40;68.90;;;;;;4995184;28;20034;-77
2021/03/16 12:05:50;;;;;;;0.73;0.70;;;11.40;69.10;;;;;;4977169;28;20125;-76
2021/03/16 12:08:15;;;;;;;3.30;1.02;;;11.30;67.70;;;;;;4994988;28;20513;-76
2021/03/16 12:10:41;;;;;;;0.90;0.60;;;11.20;67.70;;;;;;4994725;28;20085;-76
2021/03/16 12:13:07;;;;;;;1.00;0.60;;;11.10;67.60;;;;;;4976888;28;20379;-75
2021/03/16 12:15:33;;;;;;;1.73;0.68;;;11.10;67.60;;;;;;4995086;28;20462;-76
2021/03/16 12:17:58;;;;;;;4.82;0.90;;;11.10;67.80;;;;;;4976948;28;20113;-75
2021/03/16 12:20:24;;;;;;;2.60;0.95;;;11.10;67.70;;;;;;4994100;28;20022;-76
2021/03/16 12:22:49;;;;;;;3.75;1.25;;;11.10;67.90;;;;;;4994235;28;20421;-75
2021/03/16 12:25:16;;;;;;;2.55;1.50;;;11.10;67.80;;;;;;4977030;28;20022;-75
2021/03/16 12:27:42;;;;;;;5.03;1.48;;;11.10;68.00;;;;;;4994493;28;20030;-75
2021/03/16 12:30:09;;;;;;;5.78;1.10;;;11.10;67.30;;;;;;4976140;28;20117;-74
2021/03/16 12:32:38;;;;;;;1.30;0.80;;;11.10;67.10;;;;;;4976487;28;20029;-75
2021/03/16 12:35:07;;;;;;;2.45;0.70;;;11.10;67.40;;;;;;4976199;28;20035;-75
2021/03/16 12:37:33;;;;;;;1.83;0.50;;;11.20;67.50;;;;;;4994534;28;20117;-75
2021/03/16 12:39:58;;;;;;;4.32;0.93;;;11.20;68.00;;;;;;4993889;28;20037;-74
2021/03/16 12:42:24;;;;;;;2.08;0.73;;;11.30;67.50;;;;;;4994462;28;20014;-75
2021/03/16 12:44:50;;;;;;;4.38;0.95;;;11.40;67.30;;;;;;4976067;28;20454;-75
2021/03/16 12:47:15;;;;;;;1.13;0.55;;;11.60;66.40;;;;;;4993639;28;20471;-75
2021/03/16 12:49:41;;;;;;;0.85;0.47;;;11.70;66.50;;;;;;4994325;28;20027;-74
2021/03/16 12:52:06;;;;;;;4.05;1.00;;;11.70;65.90;;;;;;4993646;28;20244;-75
2021/03/16 12:54:32;;;;;;;1.30;0.52;;;11.80;65.60;;;;;;4976562;28;20031;-74
2021/03/16 12:56:57;;;;;;;2.15;0.90;;;11.80;65.70;;;;;;4993101;28;20521;-74
2021/03/16 12:59:23;;;;;;;1.73;0.70;;;11.80;65.40;;;;;;4993943;28;20486;-75
2021/03/16 13:01:49;;;;;;;0.95;0.52;;;11.80;65.50;;;;;;4993286;28;20030;-75